sensor_id;sensor_type;location;lat;lon;timestamp;pressure;altitude;pressure_sealevel;temperature;humidity
67345;BME280;54230;52.402;6.276;2023-01-19T00:00:00;99930.0;;;0.4;100.0
67345;BME280;54230;52.402;6.276;2023-01-19T00:05:00;99930.0;;;0.3;100.0
67345;BME280;54230;52.402;6.276;2023-01-19T00:10:00;99940.0;;;0.2;100.0
67345;BME280;54230;52.402;6.276;2023-01-19T00:15:00;99930.0;;;0.1;100.0
67345;BME280;54230;52.402;6.276;2023-01-19T00:20:00;99930.0;;;0.2;100.0
67345;BME280;54230;52.402;6.276;2023-01-19T00:25:00;99930.0;;;0.2;100.0
67345;BME280;54230;52.402;6.276;2023-01-19T00:30:00;99940.0;;;0.2;100.0
67345;BME280;54230;52.402;6.276;2023-01-19T00:35:00;99930.0;;;0.2;100.0
67345;BME280;54230;52.402;6.276;2023-01-19T00:40:00;99940.0;;;0.3;100.0
67345;BME280;54230;52.402;6.276;2023-01-19T00:45:00;99930.0;;;0.2;100.0
67345;BME280;54230;52.402;6.276;2023-01-19T00:50:00;99930.0;;;0.3;100.0
67345;BME280;54230;52.402;6.276;2023-01-19T00:55:00;99930.0;;;0.4;100.0
67345;BME280;54230;52.402;6.276;2023-01-19T01:00:01;99920.0;;;0.4;100.0
67345;BME280;54230;52.402;6.276;2023-01-19T01:05:00;99930.0;;;0.5;100.0
67345;BME280;54230;52.402;6.276;2023-01-19T01:10:00;99920.0;;;0.6;100.0
67345;BME280;54230;52.402;6.276;2023-01-19T01:15:00;99930.0;;;0.6;100.0
67345;BME280;54230;52.402;6.276;2023-01-19T01:20:00;99930.0;;;0.6;100.0
67345;BME280;54230;52.402;6.276;2023-01-19T01:25:00;99940.0;;;0.7;100.0
67345;BME280;54230;52.402;6.276;2023-01-19T01:30:00;99940.0;;;0.7;100.0
67345;BME280;54230;52.402;6.276;2023-01-19T01:35:00;99940.0;;;0.7;100.0
67345;BME280;54230;52.402;6.276;2023-01-19T01:40:00;99950.0;;;0.7;100.0
67345;BME280;54230;52.402;6.276;2023-01-19T01:45:02;99950.0;;;0.7;100.0
67345;BME280;54230;52.402;6.276;2023-01-19T01:50:04;99940.0;;;0.7;100.0
67345;BME280;54230;52.402;6.276;2023-01-19T01:55:01;99950.0;;;0.7;100.0
67345;BME280;54230;52.402;6.276;2023-01-19T02:00:01;99950.0;;;0.7;100.0
67345;BME280;54230;52.402;6.276;2023-01-19T02:05:03;99950.0;;;0.7;100.0
67345;BME280;54230;52.402;6.276;2023-01-19T02:10:00;99940.0;;;0.8;100.0
67345;BME280;54230;52.402;6.276;2023-01-19T02:15:00;99940.0;;;0.8;100.0
67345;BME280;54230;52.402;6.276;2023-01-19T02:20:00;99940.0;;;0.9;100.0
67345;BME280;54230;52.402;6.276;2023-01-19T02:25:01;99940.0;;;0.9;100.0
67345;BME280;54230;52.402;6.276;2023-01-19T02:30:01;99930.0;;;0.9;100.0
67345;BME280;54230;52.402;6.276;2023-01-19T02:35:00;99940.0;;;1.0;100.0
67345;BME280;54230;52.402;6.276;2023-01-19T02:40:02;99930.0;;;1.0;100.0
67345;BME280;54230;52.402;6.276;2023-01-19T02:45:00;99940.0;;;1.0;100.0
67345;BME280;54230;52.402;6.276;2023-01-19T02:50:00;99920.0;;;0.8;100.0
67345;BME280;54230;52.402;6.276;2023-01-19T02:55:04;99950.0;;;0.8;100.0
67345;BME280;54230;52.402;6.276;2023-01-19T03:00:11;99940.0;;;0.6;100.0
67345;BME280;54230;52.402;6.276;2023-01-19T03:05:15;99940.0;;;0.5;100.0
67345;BME280;54230;52.402;6.276;2023-01-19T03:10:06;99950.0;;;0.5;100.0
67345;BME280;54230;52.402;6.276;2023-01-19T03:15:07;99950.0;;;0.5;100.0
67345;BME280;54230;52.402;6.276;2023-01-19T03:20:02;99950.0;;;0.5;100.0
67345;BME280;54230;52.402;6.276;2023-01-19T03:25:01;99950.0;;;0.4;100.0
67345;BME280;54230;52.402;6.276;2023-01-19T03:30:04;99950.0;;;0.4;100.0
67345;BME280;54230;52.402;6.276;2023-01-19T03:35:02;99950.0;;;0.4;100.0
67345;BME280;54230;52.402;6.276;2023-01-19T03:40:00;99950.0;;;0.4;100.0
67345;BME280;54230;52.402;6.276;2023-01-19T03:45:00;99960.0;;;0.5;100.0
67345;BME280;54230;52.402;6.276;2023-01-19T03:50:02;99950.0;;;0.5;100.0
67345;BME280;54230;52.402;6.276;2023-01-19T03:55:02;99940.0;;;0.6;100.0
67345;BME280;54230;52.402;6.276;2023-01-19T04:00:00;99950.0;;;0.6;100.0
67345;BME280;54230;52.402;6.276;2023-01-19T04:05:00;99950.0;;;0.6;100.0
67345;BME280;54230;52.402;6.276;2023-01-19T04:10:00;99970.0;;;0.7;100.0
67345;BME280;54230;52.402;6.276;2023-01-19T04:15:00;99960.0;;;0.8;100.0
67345;BME280;54230;52.402;6.276;2023-01-19T04:20:00;99970.0;;;1.0;100.0
67345;BME280;54230;52.402;6.276;2023-01-19T04:25:00;99960.0;;;1.0;100.0
67345;BME280;54230;52.402;6.276;2023-01-19T04:30:00;99960.0;;;1.1;100.0
67345;BME280;54230;52.402;6.276;2023-01-19T04:35:00;99960.0;;;1.1;100.0
67345;BME280;54230;52.402;6.276;2023-01-19T04:40:00;99960.0;;;1.1;100.0
67345;BME280;54230;52.402;6.276;2023-01-19T04:45:00;99960.0;;;1.1;100.0
67345;BME280;54230;52.402;6.276;2023-01-19T04:50:00;99980.0;;;1.1;100.0
67345;BME280;54230;52.402;6.276;2023-01-19T04:55:00;99980.0;;;1.2;100.0
67345;BME280;54230;52.402;6.276;2023-01-19T05:00:00;99990.0;;;1.3;100.0
67345;BME280;54230;52.402;6.276;2023-01-19T05:05:00;99990.0;;;1.4;100.0
67345;BME280;54230;52.402;6.276;2023-01-19T05:10:00;100000.0;;;1.5;100.0
67345;BME280;54230;52.402;6.276;2023-01-19T05:15:00;100020.0;;;1.7;100.0
67345;BME280;54230;52.402;6.276;2023-01-19T05:20:00;100020.0;;;1.7;100.0
67345;BME280;54230;52.402;6.276;2023-01-19T05:25:00;100020.0;;;1.8;100.0
67345;BME280;54230;52.402;6.276;2023-01-19T05:30:00;100030.0;;;1.9;100.0
67345;BME280;54230;52.402;6.276;2023-01-19T05:35:00;99990.0;;;1.7;100.0
67345;BME280;54230;52.402;6.276;2023-01-19T05:40:00;100040.0;;;2.1;100.0
67345;BME280;54230;52.402;6.276;2023-01-19T05:45:00;100040.0;;;2.2;100.0
67345;BME280;54230;52.402;6.276;2023-01-19T05:50:00;100060.0;;;2.2;100.0
67345;BME280;54230;52.402;6.276;2023-01-19T05:55:00;100050.0;;;2.2;100.0
67345;BME280;54230;52.402;6.276;2023-01-19T06:00:00;100060.0;;;2.3;100.0
67345;BME280;54230;52.402;6.276;2023-01-19T06:05:00;100070.0;;;2.3;100.0
67345;BME280;54230;52.402;6.276;2023-01-19T06:10:00;100080.0;;;2.3;100.0
67345;BME280;54230;52.402;6.276;2023-01-19T06:15:00;100080.0;;;2.4;100.0
67345;BME280;54230;52.402;6.276;2023-01-19T06:20:00;100090.0;;;2.4;100.0
67345;BME280;54230;52.402;6.276;2023-01-19T06:25:00;100100.0;;;2.5;100.0
67345;BME280;54230;52.402;6.276;2023-01-19T06:30:00;100110.0;;;2.5;100.0
67345;BME280;54230;52.402;6.276;2023-01-19T06:35:00;100120.0;;;2.5;100.0
67345;BME280;54230;52.402;6.276;2023-01-19T06:40:00;100130.0;;;2.4;100.0
67345;BME280;54230;52.402;6.276;2023-01-19T06:45:00;100140.0;;;2.4;100.0
67345;BME280;54230;52.402;6.276;2023-01-19T06:50:00;100160.0;;;2.4;100.0
67345;BME280;54230;52.402;6.276;2023-01-19T06:55:00;100170.0;;;2.4;100.0
67345;BME280;54230;52.402;6.276;2023-01-19T07:00:00;100180.0;;;2.5;100.0
67345;BME280;54230;52.402;6.276;2023-01-19T07:05:00;100180.0;;;2.4;100.0
67345;BME280;54230;52.402;6.276;2023-01-19T07:10:00;100190.0;;;2.4;100.0
67345;BME280;54230;52.402;6.276;2023-01-19T07:15:00;100210.0;;;2.4;100.0
67345;BME280;54230;52.402;6.276;2023-01-19T07:20:00;100210.0;;;2.5;100.0
67345;BME280;54230;52.402;6.276;2023-01-19T07:25:00;100220.0;;;2.5;100.0
67345;BME280;54230;52.402;6.276;2023-01-19T07:30:00;100220.0;;;2.5;100.0
67345;BME280;54230;52.402;6.276;2023-01-19T07:35:00;100230.0;;;2.5;100.0
67345;BME280;54230;52.402;6.276;2023-01-19T07:40:00;100240.0;;;2.4;100.0
67345;BME280;54230;52.402;6.276;2023-01-19T07:45:00;100250.0;;;2.4;100.0
67345;BME280;54230;52.402;6.276;2023-01-19T07:50:00;100260.0;;;2.5;100.0
67345;BME280;54230;52.402;6.276;2023-01-19T07:55:00;100270.0;;;2.4;100.0
67345;BME280;54230;52.402;6.276;2023-01-19T08:00:01;100280.0;;;2.3;100.0
67345;BME280;54230;52.402;6.276;2023-01-19T08:05:00;100290.0;;;2.3;100.0
67345;BME280;54230;52.402;6.276;2023-01-19T08:10:00;100310.0;;;2.2;100.0
67345;BME280;54230;52.402;6.276;2023-01-19T08:15:00;100310.0;;;2.1;100.0
67345;BME280;54230;52.402;6.276;2023-01-19T08:20:00;100320.0;;;2.1;100.0
67345;BME280;54230;52.402;6.276;2023-01-19T08:25:00;100330.0;;;2.0;100.0
67345;BME280;54230;52.402;6.276;2023-01-19T08:30:00;100340.0;;;2.0;100.0
67345;BME280;54230;52.402;6.276;2023-01-19T08:35:00;100340.0;;;1.9;100.0
67345;BME280;54230;52.402;6.276;2023-01-19T08:40:00;100350.0;;;1.8;100.0
67345;BME280;54230;52.402;6.276;2023-01-19T08:45:00;100360.0;;;1.8;100.0
67345;BME280;54230;52.402;6.276;2023-01-19T08:50:00;100340.0;;;1.6;100.0
67345;BME280;54230;52.402;6.276;2023-01-19T08:55:00;100370.0;;;1.9;100.0
67345;BME280;54230;52.402;6.276;2023-01-19T09:00:00;100370.0;;;2.0;100.0
67345;BME280;54230;52.402;6.276;2023-01-19T09:05:00;100390.0;;;2.1;100.0
67345;BME280;54230;52.402;6.276;2023-01-19T09:10:00;100390.0;;;2.3;100.0
67345;BME280;54230;52.402;6.276;2023-01-19T09:15:00;100370.0;;;2.4;100.0
67345;BME280;54230;52.402;6.276;2023-01-19T09:20:00;100410.0;;;2.8;100.0
67345;BME280;54230;52.402;6.276;2023-01-19T09:25:00;100410.0;;;2.9;100.0
67345;BME280;54230;52.402;6.276;2023-01-19T09:30:00;100420.0;;;3.0;100.0
67345;BME280;54230;52.402;6.276;2023-01-19T09:35:00;100420.0;;;2.9;100.0
67345;BME280;54230;52.402;6.276;2023-01-19T09:40:00;100430.0;;;3.0;100.0
67345;BME280;54230;52.402;6.276;2023-01-19T09:45:01;100420.0;;;3.0;100.0
67345;BME280;54230;52.402;6.276;2023-01-19T09:50:02;100440.0;;;3.2;100.0
67345;BME280;54230;52.402;6.276;2023-01-19T09:55:00;100440.0;;;3.1;100.0
67345;BME280;54230;52.402;6.276;2023-01-19T10:00:00;100440.0;;;3.0;100.0
67345;BME280;54230;52.402;6.276;2023-01-19T10:05:01;100450.0;;;3.3;100.0
67345;BME280;54230;52.402;6.276;2023-01-19T10:10:11;100450.0;;;3.4;100.0
67345;BME280;54230;52.402;6.276;2023-01-19T10:15:05;100450.0;;;3.4;100.0
67345;BME280;54230;52.402;6.276;2023-01-19T10:20:00;100450.0;;;3.6;100.0
67345;BME280;54230;52.402;6.276;2023-01-19T10:25:02;100450.0;;;3.8;100.0
67345;BME280;54230;52.402;6.276;2023-01-19T10:30:00;100460.0;;;3.9;100.0
67345;BME280;54230;52.402;6.276;2023-01-19T10:35:03;100460.0;;;4.1;100.0
67345;BME280;54230;52.402;6.276;2023-01-19T10:40:14;100460.0;;;4.2;99.2
67345;BME280;54230;52.402;6.276;2023-01-19T10:45:00;100460.0;;;4.3;100.0
67345;BME280;54230;52.402;6.276;2023-01-19T10:50:05;100460.0;;;4.4;99.0
67345;BME280;54230;52.402;6.276;2023-01-19T10:55:01;100470.0;;;4.5;99.5
67345;BME280;54230;52.402;6.276;2023-01-19T11:00:00;100460.0;;;4.5;99.8
67345;BME280;54230;52.402;6.276;2023-01-19T11:05:20;100470.0;;;4.6;100.0
67345;BME280;54230;52.402;6.276;2023-01-19T11:10:11;100470.0;;;4.7;99.5
67345;BME280;54230;52.402;6.276;2023-01-19T11:15:11;100470.0;;;4.9;99.9
67345;BME280;54230;52.402;6.276;2023-01-19T11:20:00;100470.0;;;5.0;99.1
67345;BME280;54230;52.402;6.276;2023-01-19T11:25:02;100470.0;;;5.0;95.1
67345;BME280;54230;52.402;6.276;2023-01-19T11:30:05;100470.0;;;5.1;94.5
67345;BME280;54230;52.402;6.276;2023-01-19T11:35:00;100480.0;;;5.1;89.6
67345;BME280;54230;52.402;6.276;2023-01-19T11:40:02;100470.0;;;5.4;91.3
67345;BME280;54230;52.402;6.276;2023-01-19T11:45:03;100470.0;;;5.4;88.6
67345;BME280;54230;52.402;6.276;2023-01-19T11:50:05;100470.0;;;5.6;87.9
67345;BME280;54230;52.402;6.276;2023-01-19T11:55:04;100470.0;;;5.7;87.4
67345;BME280;54230;52.402;6.276;2023-01-19T12:00:04;100470.0;;;5.9;84.4
67345;BME280;54230;52.402;6.276;2023-01-19T12:05:04;100480.0;;;5.9;83.5
67345;BME280;54230;52.402;6.276;2023-01-19T12:10:05;100480.0;;;5.8;80.1
67345;BME280;54230;52.402;6.276;2023-01-19T12:15:04;100480.0;;;5.7;79.5
67345;BME280;54230;52.402;6.276;2023-01-19T12:20:05;100490.0;;;5.3;76.7
67345;BME280;54230;52.402;6.276;2023-01-19T12:25:04;100480.0;;;5.3;78.8
67345;BME280;54230;52.402;6.276;2023-01-19T12:30:00;100490.0;;;5.3;79.1
67345;BME280;54230;52.402;6.276;2023-01-19T12:35:00;100500.0;;;5.3;78.9
67345;BME280;54230;52.402;6.276;2023-01-19T12:40:02;100490.0;;;5.5;80.2
67345;BME280;54230;52.402;6.276;2023-01-19T12:45:05;100480.0;;;5.4;76.9
67345;BME280;54230;52.402;6.276;2023-01-19T12:50:04;100490.0;;;5.4;77.8
67345;BME280;54230;52.402;6.276;2023-01-19T12:55:05;100490.0;;;5.6;74.8
67345;BME280;54230;52.402;6.276;2023-01-19T13:00:03;100500.0;;;5.7;74.9
67345;BME280;54230;52.402;6.276;2023-01-19T13:05:10;100490.0;;;5.9;74.1
67345;BME280;54230;52.402;6.276;2023-01-19T13:20:04;100490.0;;;5.9;69.7
67345;BME280;54230;52.402;6.276;2023-01-19T13:25:04;100500.0;;;5.7;69.4
67345;BME280;54230;52.402;6.276;2023-01-19T13:30:00;100510.0;;;5.6;70.2
67345;BME280;54230;52.402;6.276;2023-01-19T13:35:00;100520.0;;;5.4;70.8
67345;BME280;54230;52.402;6.276;2023-01-19T13:40:00;100510.0;;;5.4;72.0
67345;BME280;54230;52.402;6.276;2023-01-19T13:45:04;100520.0;;;5.5;74.9
67345;BME280;54230;52.402;6.276;2023-01-19T13:50:00;100530.0;;;5.4;73.4
67345;BME280;54230;52.402;6.276;2023-01-19T13:55:02;100530.0;;;5.4;74.0
67345;BME280;54230;52.402;6.276;2023-01-19T14:00:03;100530.0;;;5.3;73.9
67345;BME280;54230;52.402;6.276;2023-01-19T14:05:12;100530.0;;;5.2;73.4
67345;BME280;54230;52.402;6.276;2023-01-19T14:10:01;100530.0;;;5.2;73.9
67345;BME280;54230;52.402;6.276;2023-01-19T14:15:00;100540.0;;;5.0;72.7
67345;BME280;54230;52.402;6.276;2023-01-19T14:20:00;100520.0;;;4.7;71.6
67345;BME280;54230;52.402;6.276;2023-01-19T14:30:16;100540.0;;;4.7;71.2
67345;BME280;54230;52.402;6.276;2023-01-19T14:35:11;100550.0;;;4.7;76.1
67345;BME280;54230;52.402;6.276;2023-01-19T14:40:02;100550.0;;;4.6;74.3
67345;BME280;54230;52.402;6.276;2023-01-19T14:45:03;100560.0;;;4.5;75.4
67345;BME280;54230;52.402;6.276;2023-01-19T14:50:05;100540.0;;;4.3;75.4
67345;BME280;54230;52.402;6.276;2023-01-19T14:55:01;100560.0;;;4.3;74.5
67345;BME280;54230;52.402;6.276;2023-01-19T15:00:05;100570.0;;;4.2;73.8
67345;BME280;54230;52.402;6.276;2023-01-19T15:05:00;100580.0;;;4.3;76.5
67345;BME280;54230;52.402;6.276;2023-01-19T15:10:01;100580.0;;;4.1;75.2
67345;BME280;54230;52.402;6.276;2023-01-19T15:15:00;100590.0;;;4.1;77.5
67345;BME280;54230;52.402;6.276;2023-01-19T15:20:00;100570.0;;;3.9;79.1
67345;BME280;54230;52.402;6.276;2023-01-19T15:25:00;100600.0;;;4.0;80.3
67345;BME280;54230;52.402;6.276;2023-01-19T15:30:00;100610.0;;;3.9;78.9
67345;BME280;54230;52.402;6.276;2023-01-19T15:35:00;100610.0;;;3.8;80.5
67345;BME280;54230;52.402;6.276;2023-01-19T15:40:00;100610.0;;;3.7;81.2
67345;BME280;54230;52.402;6.276;2023-01-19T15:45:00;100610.0;;;3.5;81.4
67345;BME280;54230;52.402;6.276;2023-01-19T15:50:00;100630.0;;;3.4;81.3
67345;BME280;54230;52.402;6.276;2023-01-19T15:55:00;100620.0;;;3.3;81.8
67345;BME280;54230;52.402;6.276;2023-01-19T16:00:00;100630.0;;;3.3;81.7
67345;BME280;54230;52.402;6.276;2023-01-19T16:05:00;100630.0;;;3.2;81.1
67345;BME280;54230;52.402;6.276;2023-01-19T16:10:00;100640.0;;;3.2;82.0
67345;BME280;54230;52.402;6.276;2023-01-19T16:15:00;100650.0;;;3.2;81.9
67345;BME280;54230;52.402;6.276;2023-01-19T16:20:00;100650.0;;;3.2;82.3
67345;BME280;54230;52.402;6.276;2023-01-19T16:25:00;100660.0;;;3.2;83.2
67345;BME280;54230;52.402;6.276;2023-01-19T16:30:00;100660.0;;;3.2;80.9
67345;BME280;54230;52.402;6.276;2023-01-19T16:35:00;100670.0;;;3.2;80.9
67345;BME280;54230;52.402;6.276;2023-01-19T16:40:00;100680.0;;;3.1;80.9
67345;BME280;54230;52.402;6.276;2023-01-19T16:45:00;100680.0;;;3.1;79.9
67345;BME280;54230;52.402;6.276;2023-01-19T16:50:00;100680.0;;;3.0;81.5
67345;BME280;54230;52.402;6.276;2023-01-19T16:55:00;100690.0;;;3.0;81.3
67345;BME280;54230;52.402;6.276;2023-01-19T17:00:00;100690.0;;;2.8;79.8
67345;BME280;54230;52.402;6.276;2023-01-19T17:05:00;100690.0;;;2.8;81.0
67345;BME280;54230;52.402;6.276;2023-01-19T17:10:00;100700.0;;;2.8;80.7
67345;BME280;54230;52.402;6.276;2023-01-19T17:15:00;100700.0;;;2.8;81.5
67345;BME280;54230;52.402;6.276;2023-01-19T17:20:00;100710.0;;;2.8;81.2
67345;BME280;54230;52.402;6.276;2023-01-19T17:25:00;100710.0;;;2.8;79.3
67345;BME280;54230;52.402;6.276;2023-01-19T17:30:00;100720.0;;;2.8;79.4
67345;BME280;54230;52.402;6.276;2023-01-19T17:35:00;100720.0;;;2.8;79.2
67345;BME280;54230;52.402;6.276;2023-01-19T17:40:00;100720.0;;;2.6;80.1
67345;BME280;54230;52.402;6.276;2023-01-19T17:45:00;100720.0;;;2.5;79.2
67345;BME280;54230;52.402;6.276;2023-01-19T17:50:00;100730.0;;;2.4;79.6
67345;BME280;54230;52.402;6.276;2023-01-19T17:55:00;100730.0;;;2.3;80.4
67345;BME280;54230;52.402;6.276;2023-01-19T18:00:00;100740.0;;;2.2;81.5
67345;BME280;54230;52.402;6.276;2023-01-19T18:05:00;100750.0;;;2.2;80.7
67345;BME280;54230;52.402;6.276;2023-01-19T18:10:00;100750.0;;;2.1;80.9
67345;BME280;54230;52.402;6.276;2023-01-19T18:15:00;100750.0;;;2.1;81.5
67345;BME280;54230;52.402;6.276;2023-01-19T18:20:00;100750.0;;;2.0;81.5
67345;BME280;54230;52.402;6.276;2023-01-19T18:25:00;100760.0;;;1.9;82.4
67345;BME280;54230;52.402;6.276;2023-01-19T18:30:00;100740.0;;;1.7;83.4
67345;BME280;54230;52.402;6.276;2023-01-19T18:35:00;100760.0;;;1.7;83.6
67345;BME280;54230;52.402;6.276;2023-01-19T18:40:00;100760.0;;;1.7;84.2
67345;BME280;54230;52.402;6.276;2023-01-19T18:45:00;100760.0;;;1.6;85.2
67345;BME280;54230;52.402;6.276;2023-01-19T18:50:00;100760.0;;;1.5;85.8
67345;BME280;54230;52.402;6.276;2023-01-19T18:55:00;100760.0;;;1.5;86.8
67345;BME280;54230;52.402;6.276;2023-01-19T19:00:00;100760.0;;;1.4;86.6
67345;BME280;54230;52.402;6.276;2023-01-19T19:05:00;100770.0;;;1.3;86.4
67345;BME280;54230;52.402;6.276;2023-01-19T19:10:00;100780.0;;;1.2;87.2
67345;BME280;54230;52.402;6.276;2023-01-19T19:15:00;100780.0;;;1.1;87.2
67345;BME280;54230;52.402;6.276;2023-01-19T19:20:00;100790.0;;;1.0;88.8
67345;BME280;54230;52.402;6.276;2023-01-19T19:25:00;100800.0;;;0.9;90.0
67345;BME280;54230;52.402;6.276;2023-01-19T19:30:00;100810.0;;;0.8;90.6
67345;BME280;54230;52.402;6.276;2023-01-19T19:35:00;100810.0;;;0.8;91.4
67345;BME280;54230;52.402;6.276;2023-01-19T19:40:00;100820.0;;;0.7;92.1
67345;BME280;54230;52.402;6.276;2023-01-19T19:45:00;100820.0;;;0.7;93.0
67345;BME280;54230;52.402;6.276;2023-01-19T19:50:00;100830.0;;;0.7;93.8
67345;BME280;54230;52.402;6.276;2023-01-19T19:55:00;100830.0;;;0.7;94.2
67345;BME280;54230;52.402;6.276;2023-01-19T20:00:00;100840.0;;;0.7;94.9
67345;BME280;54230;52.402;6.276;2023-01-19T20:05:00;100840.0;;;0.7;95.4
67345;BME280;54230;52.402;6.276;2023-01-19T20:10:00;100860.0;;;0.7;95.2
67345;BME280;54230;52.402;6.276;2023-01-19T20:15:00;100870.0;;;0.7;95.9
67345;BME280;54230;52.402;6.276;2023-01-19T20:20:00;100870.0;;;0.7;96.8
67345;BME280;54230;52.402;6.276;2023-01-19T20:25:00;100870.0;;;0.6;96.8
67345;BME280;54230;52.402;6.276;2023-01-19T20:30:00;100870.0;;;0.6;98.0
67345;BME280;54230;52.402;6.276;2023-01-19T20:35:00;100880.0;;;0.6;98.7
67345;BME280;54230;52.402;6.276;2023-01-19T20:40:00;100880.0;;;0.6;98.9
67345;BME280;54230;52.402;6.276;2023-01-19T20:45:00;100890.0;;;0.7;99.2
67345;BME280;54230;52.402;6.276;2023-01-19T20:50:00;100890.0;;;0.8;99.4
67345;BME280;54230;52.402;6.276;2023-01-19T20:55:00;100900.0;;;0.8;99.4
67345;BME280;54230;52.402;6.276;2023-01-19T21:00:00;100900.0;;;0.8;100.0
67345;BME280;54230;52.402;6.276;2023-01-19T21:05:00;100910.0;;;0.8;100.0
67345;BME280;54230;52.402;6.276;2023-01-19T21:10:00;100910.0;;;0.8;100.0
67345;BME280;54230;52.402;6.276;2023-01-19T21:15:00;100910.0;;;0.8;100.0
67345;BME280;54230;52.402;6.276;2023-01-19T21:20:00;100910.0;;;0.8;100.0
67345;BME280;54230;52.402;6.276;2023-01-19T21:25:00;100890.0;;;0.6;100.0
67345;BME280;54230;52.402;6.276;2023-01-19T21:30:00;100920.0;;;0.8;100.0
67345;BME280;54230;52.402;6.276;2023-01-19T21:35:00;100920.0;;;0.8;100.0
67345;BME280;54230;52.402;6.276;2023-01-19T21:40:00;100920.0;;;0.9;100.0
67345;BME280;54230;52.402;6.276;2023-01-19T21:45:00;100900.0;;;0.9;100.0
67345;BME280;54230;52.402;6.276;2023-01-19T21:50:00;100930.0;;;1.1;100.0
67345;BME280;54230;52.402;6.276;2023-01-19T21:55:00;100940.0;;;1.2;100.0
67345;BME280;54230;52.402;6.276;2023-01-19T22:00:00;100950.0;;;1.2;100.0
67345;BME280;54230;52.402;6.276;2023-01-19T22:05:00;100950.0;;;1.2;100.0
67345;BME280;54230;52.402;6.276;2023-01-19T22:10:00;100950.0;;;1.2;100.0
67345;BME280;54230;52.402;6.276;2023-01-19T22:15:00;100960.0;;;1.1;100.0
67345;BME280;54230;52.402;6.276;2023-01-19T22:20:00;100960.0;;;1.1;100.0
67345;BME280;54230;52.402;6.276;2023-01-19T22:25:00;100970.0;;;1.0;100.0
67345;BME280;54230;52.402;6.276;2023-01-19T22:30:00;100970.0;;;1.0;100.0
67345;BME280;54230;52.402;6.276;2023-01-19T22:35:00;100970.0;;;1.0;100.0
67345;BME280;54230;52.402;6.276;2023-01-19T22:40:00;100970.0;;;1.0;100.0
67345;BME280;54230;52.402;6.276;2023-01-19T22:45:00;100980.0;;;1.0;100.0
67345;BME280;54230;52.402;6.276;2023-01-19T22:50:00;100980.0;;;1.0;100.0
67345;BME280;54230;52.402;6.276;2023-01-19T22:55:00;100990.0;;;0.9;100.0
67345;BME280;54230;52.402;6.276;2023-01-19T23:00:00;100990.0;;;1.0;100.0
67345;BME280;54230;52.402;6.276;2023-01-19T23:05:00;101000.0;;;0.9;100.0
67345;BME280;54230;52.402;6.276;2023-01-19T23:10:00;100990.0;;;0.9;100.0
67345;BME280;54230;52.402;6.276;2023-01-19T23:15:00;101000.0;;;0.7;100.0
67345;BME280;54230;52.402;6.276;2023-01-19T23:20:00;100990.0;;;0.5;100.0
67345;BME280;54230;52.402;6.276;2023-01-19T23:25:00;101000.0;;;0.4;100.0
67345;BME280;54230;52.402;6.276;2023-01-19T23:30:00;101000.0;;;0.4;100.0
67345;BME280;54230;52.402;6.276;2023-01-19T23:35:00;101010.0;;;0.4;100.0
67345;BME280;54230;52.402;6.276;2023-01-19T23:40:00;101020.0;;;0.4;100.0
67345;BME280;54230;52.402;6.276;2023-01-19T23:45:00;101020.0;;;0.3;100.0
67345;BME280;54230;52.402;6.276;2023-01-19T23:50:00;101030.0;;;0.4;100.0
67345;BME280;54230;52.402;6.276;2023-01-19T23:55:00;101030.0;;;0.4;100.0
